Main page
METAR-TAF:

METAR-TAF

Airports :

Palma de Mallorca, Spain

Palma de Mallorca Airport

latitude: 39-33N, longitude: 002-44E, elevation: 4 m

Current weather observation

The report was made 30 minutes ago, at 07:00 UTC
Calm wind
Temperature 9°C
Humidity 100%
Pressure 1018 hPa
Visibility: 4000 m
Few clouds at a height of 2500 ft
Shallow fog

METAR: LEPA 220700Z 00000KT 9999 4000N MIFG FEW025 09/09 Q1018 NOSIG

Time: 08:30 (07:30 UTC)

Forecast

The report was made 2 hours and 30 minutes ago, at 05:00 UTC
Forecast valid from 22 at 06 UTC to 23 at 06 UTC
Wind 3 kt from variable directions
Visibility 10 km or more
Scattered clouds at a height of 2500 ft
Probability 30% :
Temporary
from 22 at 06 UTC to 22 at 08 UTC
Visibility: 2000 m
Broken clouds at a height of 500 ft
patches of fog
Temporary
from 22 at 12 UTC to 22 at 17 UTC
Wind 8 kt from the South/Southwest

TAF: LEPA 220500Z 2206/2306 VRB03KT 9999 SCT025 TX21/2212Z TN07/2206Z PROB30 TEMPO 2206/2208 2000 BCFG BKN005 TEMPO 2212/2217 20008KT

Weather observations and forecasts of more than 4000 airports (METAR and TAF reports).

The available stations are represented by yellow and red dots on the map.

Hover mouse over dot to see the name of the station.

Then click to see weather observations and forecasts.

To change the map : click on the green buttons with a black cross to zoom in, on the green button with a dash to zoom out, or on the green arrows for adjacent maps.


METAR-TAF: